Time;durP1;ratioP1;P1;durP2;ratioP2;P2;SDS_P1;SDS_P2;PMS_P1;PMS_P2;Temp;Humidity;BMP_temperature;BMP_pressure;BME280_temperature;BME280_humidity;BME280_pressure;Samples;Min_cycle;Max_cycle;Signal;HPM_P1;HPM_P2
2023/04/16 00:02:50;;;;;;;6.95;3.08;;;;;;;;;;10289332;28;20142;-64
2023/04/16 00:07:50;;;;;;;6.57;3.42;;;;;;;;;;10289343;28;20181;-64
2023/04/16 00:12:48;;;;;;;7.40;3.50;;;;;;;;;;10288422;28;20068;-64
2023/04/16 00:17:46;;;;;;;8.85;3.88;;;;;;;;;;10286599;28;20068;-63
2023/04/16 00:22:46;;;;;;;6.18;3.45;;;;;;;;;;10290464;28;20073;-64
2023/04/16 00:27:44;;;;;;;13.50;4.55;;;;;;;;;;10287919;28;20071;-63
2023/04/16 00:32:42;;;;;;;8.07;3.03;;;;;;;;;;10286490;28;20071;-64
2023/04/16 00:37:41;;;;;;;8.52;3.28;;;;;;;;;;10287848;28;20057;-63
2023/04/16 00:42:40;;;;;;;7.35;3.53;;;;;;;;;;10278294;28;20083;-64
2023/04/16 00:47:39;;;;;;;7.78;3.78;;;;;;;;;;10288830;28;20544;-64
2023/04/16 00:52:37;;;;;;;4.57;3.35;;;;;;;;;;10289692;28;20072;-64
2023/04/16 00:57:35;;;;;;;6.60;3.90;;;;;;;;;;10287169;28;20075;-64
2023/04/16 01:02:35;;;;;;;6.47;4.05;;;;;;;;;;10286367;28;20065;-64
2023/04/16 01:07:33;;;;;;;10.32;4.25;;;;;;;;;;10285962;28;20064;-64
2023/04/16 01:12:32;;;;;;;4.63;3.60;;;;;;;;;;10289237;28;20651;-65
2023/04/16 01:17:30;;;;;;;6.25;4.03;;;;;;;;;;10285880;28;20064;-64
2023/04/16 01:22:29;;;;;;;7.90;4.15;;;;;;;;;;10284397;28;20095;-64
2023/04/16 01:27:28;;;;;;;9.60;4.72;;;;;;;;;;10289094;28;20060;-64
2023/04/16 01:32:26;;;;;;;8.93;4.03;;;;;;;;;;10287065;28;20064;-64
2023/04/16 01:37:24;;;;;;;7.40;3.60;;;;;;;;;;10272654;28;20079;-64
2023/04/16 01:42:24;;;;;;;9.00;4.72;;;;;;;;;;10285616;28;20075;-64
2023/04/16 01:47:22;;;;;;;7.30;4.22;;;;;;;;;;10285945;28;20075;-64
2023/04/16 01:52:20;;;;;;;4.97;3.72;;;;;;;;;;10286805;28;20119;-64
2023/04/16 01:57:18;;;;;;;10.25;4.15;;;;;;;;;;10285679;28;20061;-64
2023/04/16 02:02:18;;;;;;;7.50;4.35;;;;;;;;;;10289639;28;20080;-64
2023/04/16 02:07:17;;;;;;;7.68;4.55;;;;;;;;;;10286732;28;20510;-64
2023/04/16 02:12:15;;;;;;;9.60;4.30;;;;;;;;;;10285463;28;20069;-64
2023/04/16 02:17:14;;;;;;;8.27;3.80;;;;;;;;;;10273961;28;20072;-64
2023/04/16 02:22:14;;;;;;;8.23;3.85;;;;;;;;;;10287231;28;20073;-64
2023/04/16 02:27:13;;;;;;;9.15;3.78;;;;;;;;;;10289335;28;20060;-64
2023/04/16 02:32:12;;;;;;;9.27;4.28;;;;;;;;;;10278449;28;20505;-64
2023/04/16 02:37:15;;;;;;;8.40;4.50;;;;;;;;;;10277458;28;20076;-64
2023/04/16 02:42:14;;;;;;;8.65;3.08;;;;;;;;;;10293104;28;20095;-64
2023/04/16 02:47:12;;;;;;;15.07;3.92;;;;;;;;;;10293602;28;20086;-64
2023/04/16 02:52:10;;;;;;;7.68;4.25;;;;;;;;;;10281871;28;20088;-64
2023/04/16 02:57:13;;;;;;;5.93;3.85;;;;;;;;;;10293238;28;20084;-64
2023/04/16 03:02:12;;;;;;;8.07;3.70;;;;;;;;;;10292046;28;20086;-65
2023/04/16 03:07:11;;;;;;;9.10;3.83;;;;;;;;;;10290778;28;20084;-65
2023/04/16 03:12:10;;;;;;;9.85;4.93;;;;;;;;;;10291924;28;20523;-63
2023/04/16 03:17:10;;;;;;;10.38;3.63;;;;;;;;;;10293698;28;20576;-64
2023/04/16 03:22:08;;;;;;;10.63;4.90;;;;;;;;;;10299150;28;20076;-67
2023/04/16 03:27:06;;;;;;;8.50;4.57;;;;;;;;;;10289252;28;20072;-64
2023/04/16 03:32:05;;;;;;;11.55;5.07;;;;;;;;;;10272063;28;20474;-61
2023/04/16 03:37:05;;;;;;;17.25;5.90;;;;;;;;;;10290996;28;20079;-63
2023/04/16 03:42:03;;;;;;;13.45;6.88;;;;;;;;;;10291889;28;20457;-64
2023/04/16 03:47:03;;;;;;;9.93;4.97;;;;;;;;;;10288728;28;20091;-63
2023/04/16 03:52:01;;;;;;;7.78;4.55;;;;;;;;;;10289081;28;20072;-63
2023/04/16 03:57:01;;;;;;;7.93;4.35;;;;;;;;;;10277500;28;20073;-64
2023/04/16 04:01:59;;;;;;;11.27;5.57;;;;;;;;;;10286098;28;20073;-64
2023/04/16 04:06:58;;;;;;;10.80;4.47;;;;;;;;;;10276852;28;20587;-64
2023/04/16 04:11:57;;;;;;;14.98;5.07;;;;;;;;;;10284574;28;20085;-63
2023/04/16 04:16:57;;;;;;;8.55;4.97;;;;;;;;;;10281475;28;20091;-63
2023/04/16 04:21:55;;;;;;;8.07;5.65;;;;;;;;;;10279594;28;20077;-63
2023/04/16 04:26:54;;;;;;;8.25;4.47;;;;;;;;;;10301614;28;20525;-63
2023/04/16 04:31:53;;;;;;;8.55;4.57;;;;;;;;;;10285886;28;20076;-62
2023/04/16 04:36:55;;;;;;;8.45;4.35;;;;;;;;;;10283529;28;20084;-63
2023/04/16 04:41:54;;;;;;;7.82;4.40;;;;;;;;;;10283017;28;20073;-64
2023/04/16 04:46:52;;;;;;;11.20;5.05;;;;;;;;;;10285191;28;20124;-62
2023/04/16 04:51:50;;;;;;;10.27;4.28;;;;;;;;;;10292980;28;20068;-62
2023/04/16 04:56:52;;;;;;;13.18;5.88;;;;;;;;;;10256779;28;20071;-63
2023/04/16 05:01:51;;;;;;;12.60;5.68;;;;;;;;;;10283687;28;20068;-63
2023/04/16 05:06:49;;;;;;;12.02;4.90;;;;;;;;;;10285856;28;20060;-63
2023/04/16 05:11:47;;;;;;;10.13;4.53;;;;;;;;;;10286032;28;20069;-62
2023/04/16 05:16:47;;;;;;;8.90;5.57;;;;;;;;;;10282873;28;20080;-63
2023/04/16 05:21:45;;;;;;;11.15;4.95;;;;;;;;;;10282920;28;20083;-63
2023/04/16 05:26:43;;;;;;;8.85;4.38;;;;;;;;;;10287881;28;20068;-63
2023/04/16 05:31:41;;;;;;;12.80;4.82;;;;;;;;;;10289431;28;20073;-63
2023/04/16 05:36:41;;;;;;;14.00;5.18;;;;;;;;;;10270653;28;20041;-63
2023/04/16 05:41:39;;;;;;;8.93;5.18;;;;;;;;;;10289842;28;20503;-63
2023/04/16 05:46:37;;;;;;;14.95;5.32;;;;;;;;;;10285402;28;20075;-63
2023/04/16 05:51:35;;;;;;;23.85;7.82;;;;;;;;;;10277311;28;20072;-64
2023/04/16 05:56:35;;;;;;;9.85;5.07;;;;;;;;;;10279694;28;20060;-64
2023/04/16 06:01:33;;;;;;;14.43;5.70;;;;;;;;;;10289878;28;20068;-64
2023/04/16 06:06:31;;;;;;;19.50;6.72;;;;;;;;;;10295661;28;20072;-64
2023/04/16 06:11:30;;;;;;;20.75;10.43;;;;;;;;;;10293257;28;20075;-64
2023/04/16 06:16:29;;;;;;;15.43;9.35;;;;;;;;;;10292954;28;20478;-63
2023/04/16 06:21:28;;;;;;;13.70;6.88;;;;;;;;;;10292141;28;20063;-63
2023/04/16 06:26:26;;;;;;;15.88;5.50;;;;;;;;;;10290072;28;20068;-63
2023/04/16 06:31:25;;;;;;;13.20;5.43;;;;;;;;;;10292894;28;20088;-64
2023/04/16 06:36:26;;;;;;;18.85;6.13;;;;;;;;;;10292748;28;20522;-64
2023/04/16 06:41:25;;;;;;;13.75;5.50;;;;;;;;;;10295003;28;20072;-64
2023/04/16 06:46:23;;;;;;;10.77;5.70;;;;;;;;;;10296786;28;20064;-64
2023/04/16 06:51:22;;;;;;;13.13;6.20;;;;;;;;;;10294828;28;20131;-64
2023/04/16 06:56:21;;;;;;;17.33;6.53;;;;;;;;;;10294230;28;20060;-64
2023/04/16 07:01:19;;;;;;;15.30;6.47;;;;;;;;;;10296857;28;20087;-64
2023/04/16 07:06:18;;;;;;;22.13;9.20;;;;;;;;;;10294807;28;20068;-64
2023/04/16 07:11:16;;;;;;;20.00;7.82;;;;;;;;;;10295792;28;20065;-64
2023/04/16 07:16:16;;;;;;;14.77;6.50;;;;;;;;;;10293922;28;20075;-64
2023/04/16 07:21:14;;;;;;;10.65;5.70;;;;;;;;;;10294591;28;20075;-64
2023/04/16 07:26:13;;;;;;;13.55;6.10;;;;;;;;;;10294451;28;20518;-64
2023/04/16 07:31:11;;;;;;;17.23;6.05;;;;;;;;;;10295749;28;20076;-64
2023/04/16 07:36:12;;;;;;;12.88;6.07;;;;;;;;;;10293318;28;20107;-64
2023/04/16 07:41:11;;;;;;;11.38;5.80;;;;;;;;;;10291869;28;20087;-64
2023/04/16 07:46:09;;;;;;;10.85;5.68;;;;;;;;;;10293078;28;20063;-64
2023/04/16 07:51:07;;;;;;;14.65;5.55;;;;;;;;;;10278390;28;21347;-63
2023/04/16 07:56:07;;;;;;;9.55;5.28;;;;;;;;;;10293053;28;20695;-65
2023/04/16 08:01:05;;;;;;;19.95;6.35;;;;;;;;;;10294011;28;20080;-64
2023/04/16 08:06:03;;;;;;;19.70;5.53;;;;;;;;;;10291745;28;20076;-65
2023/04/16 08:11:02;;;;;;;14.38;5.35;;;;;;;;;;10292581;28;20083;-64
2023/04/16 08:16:01;;;;;;;8.23;4.68;;;;;;;;;;10291982;28;20071;-65
2023/04/16 08:21:00;;;;;;;15.48;8.20;;;;;;;;;;10293144;28;20071;-65
2023/04/16 08:25:58;;;;;;;11.52;4.97;;;;;;;;;;10291509;28;20069;-65
2023/04/16 08:30:56;;;;;;;13.30;4.97;;;;;;;;;;10291491;28;20075;-65
2023/04/16 08:35:56;;;;;;;12.45;5.00;;;;;;;;;;10292326;28;20083;-65
2023/04/16 08:40:56;;;;;;;11.95;4.43;;;;;;;;;;10290441;28;20529;-65
2023/04/16 08:45:56;;;;;;;12.45;4.32;;;;;;;;;;10288792;28;20080;-63
2023/04/16 08:50:56;;;;;;;10.00;4.75;;;;;;;;;;10269223;28;20068;-64
2023/04/16 08:55:57;;;;;;;11.88;4.43;;;;;;;;;;10275368;28;20473;-64
2023/04/16 09:00:56;;;;;;;12.70;4.60;;;;;;;;;;10282630;28;20064;-65
2023/04/16 09:05:56;;;;;;;8.65;4.55;;;;;;;;;;10250079;28;20136;-65
2023/04/16 09:10:56;;;;;;;11.60;5.82;;;;;;;;;;10286516;28;20079;-64
2023/04/16 09:15:55;;;;;;;14.15;4.85;;;;;;;;;;10287804;28;20071;-65
2023/04/16 09:20:55;;;;;;;11.73;4.88;;;;;;;;;;10287156;28;20076;-64
2023/04/16 09:25:54;;;;;;;11.07;5.25;;;;;;;;;;10286298;28;20080;-64
2023/04/16 09:31:07;;;;;;;10.68;4.72;;;;;;;;;;10285405;28;20068;-65
2023/04/16 09:36:05;;;;;;;11.23;4.93;;;;;;;;;;10289093;28;20079;-64
2023/04/16 09:41:07;;;;;;;22.08;6.18;;;;;;;;;;10298702;28;20084;-65
2023/04/16 09:46:06;;;;;;;12.65;4.88;;;;;;;;;;10297015;28;20088;-64
2023/04/16 09:51:06;;;;;;;9.45;4.35;;;;;;;;;;10295102;28;20064;-64
2023/04/16 09:56:11;;;;;;;11.85;4.47;;;;;;;;;;10297282;28;20079;-65
2023/04/16 10:01:12;;;;;;;10.45;3.85;;;;;;;;;;10296788;28;20103;-64
2023/04/16 10:06:14;;;;;;;14.25;5.57;;;;;;;;;;10295248;28;20106;-64
2023/04/16 10:11:12;;;;;;;10.52;4.22;;;;;;;;;;10296965;28;20083;-65
2023/04/16 10:16:12;;;;;;;13.43;4.32;;;;;;;;;;10294868;28;20067;-64
2023/04/16 10:21:11;;;;;;;8.60;4.28;;;;;;;;;;10295181;28;20037;-64
2023/04/16 10:26:10;;;;;;;9.75;4.43;;;;;;;;;;10296020;28;20083;-64
2023/04/16 10:31:09;;;;;;;11.80;4.07;;;;;;;;;;10296825;28;20072;-64
2023/04/16 10:36:09;;;;;;;11.77;3.80;;;;;;;;;;10296914;28;20064;-65
2023/04/16 10:41:08;;;;;;;9.02;4.22;;;;;;;;;;10295555;28;20060;-64
2023/04/16 10:46:21;;;;;;;10.23;4.35;;;;;;;;;;10293264;28;20103;-64
2023/04/16 10:51:28;;;;;;;12.02;4.38;;;;;;;;;;10293804;28;20487;-64
2023/04/16 10:56:26;;;;;;;10.88;5.15;;;;;;;;;;10292896;28;20079;-64
2023/04/16 11:01:32;;;;;;;13.73;5.72;;;;;;;;;;10295966;28;20076;-65
2023/04/16 11:06:31;;;;;;;12.55;5.35;;;;;;;;;;10295191;28;20076;-65
2023/04/16 11:11:37;;;;;;;19.05;5.47;;;;;;;;;;10293035;28;20071;-65
2023/04/16 11:16:35;;;;;;;9.95;4.85;;;;;;;;;;10293835;28;20494;-64
2023/04/16 11:21:35;;;;;;;9.77;5.85;;;;;;;;;;10294774;28;20068;-64
2023/04/16 11:26:34;;;;;;;11.57;4.05;;;;;;;;;;10294037;28;20826;-65
2023/04/16 11:31:32;;;;;;;10.98;4.28;;;;;;;;;;10295612;28;20071;-65
2023/04/16 11:36:43;;;;;;;8.38;3.92;;;;;;;;;;10293628;28;20064;-65
2023/04/16 11:41:45;;;;;;;9.50;4.35;;;;;;;;;;10294421;28;20079;-65
2023/04/16 11:46:43;;;;;;;5.85;3.50;;;;;;;;;;10290496;28;20076;-65
2023/04/16 11:51:42;;;;;;;9.68;3.90;;;;;;;;;;10293717;28;20072;-65
2023/04/16 11:56:45;;;;;;;7.75;3.58;;;;;;;;;;10293766;28;20069;-65
2023/04/16 12:01:46;;;;;;;5.85;2.97;;;;;;;;;;10292159;28;20098;-65
2023/04/16 12:07:03;;;;;;;10.50;4.50;;;;;;;;;;10292155;28;20079;-63
2023/04/16 12:12:02;;;;;;;8.73;3.35;;;;;;;;;;10292164;28;20080;-64
2023/04/16 12:17:15;;;;;;;4.93;2.95;;;;;;;;;;10292547;28;20069;-64
2023/04/16 12:22:14;;;;;;;5.97;2.97;;;;;;;;;;10290017;28;20075;-64
2023/04/16 12:27:15;;;;;;;3.92;2.92;;;;;;;;;;10293446;28;20079;-64
2023/04/16 12:32:21;;;;;;;4.22;2.53;;;;;;;;;;10291510;28;20086;-64
2023/04/16 12:37:19;;;;;;;7.70;3.20;;;;;;;;;;10287274;28;20071;-64
2023/04/16 12:42:26;;;;;;;6.05;3.13;;;;;;;;;;10288920;28;20096;-63
2023/04/16 12:47:25;;;;;;;6.03;2.80;;;;;;;;;;10289287;28;20079;-65
2023/04/16 12:52:23;;;;;;;7.95;4.22;;;;;;;;;;10287885;28;20067;-64
2023/04/16 12:57:27;;;;;;;5.25;3.22;;;;;;;;;;10287351;28;20139;-65
2023/04/16 13:02:29;;;;;;;4.78;3.13;;;;;;;;;;10287294;28;20087;-66
2023/04/16 13:07:30;;;;;;;3.42;2.45;;;;;;;;;;10291217;28;20076;-65
2023/04/16 13:12:32;;;;;;;4.45;2.88;;;;;;;;;;10290321;28;20079;-64
2023/04/16 13:17:31;;;;;;;4.80;2.05;;;;;;;;;;10286654;28;20076;-64
2023/04/16 13:22:29;;;;;;;5.55;4.28;;;;;;;;;;10289147;28;20087;-65
2023/04/16 13:27:27;;;;;;;5.05;1.70;;;;;;;;;;10283845;28;20084;-64
2023/04/16 13:32:27;;;;;;;2.97;1.90;;;;;;;;;;10284279;28;20075;-64
2023/04/16 13:37:25;;;;;;;5.45;2.53;;;;;;;;;;10287339;28;20076;-65
2023/04/16 13:42:24;;;;;;;6.05;3.55;;;;;;;;;;10288182;28;20079;-65
2023/04/16 13:47:22;;;;;;;14.45;3.58;;;;;;;;;;10284378;28;20077;-64
2023/04/16 13:52:22;;;;;;;5.88;3.42;;;;;;;;;;10277340;28;20473;-64
2023/04/16 13:57:22;;;;;;;7.28;3.47;;;;;;;;;;10288751;28;20053;-65
2023/04/16 14:02:20;;;;;;;8.25;4.07;;;;;;;;;;10289515;28;20072;-65
2023/04/16 14:07:21;;;;;;;4.50;3.20;;;;;;;;;;10289132;28;20079;-65
2023/04/16 14:12:21;;;;;;;6.25;4.03;;;;;;;;;;10284625;28;20544;-63
2023/04/16 14:17:19;;;;;;;9.18;3.97;;;;;;;;;;10267775;28;20080;-66
2023/04/16 14:22:17;;;;;;;7.10;2.97;;;;;;;;;;10290631;28;20076;-64
2023/04/16 14:27:16;;;;;;;6.70;3.13;;;;;;;;;;10288758;28;20076;-64
2023/04/16 14:32:16;;;;;;;6.15;4.30;;;;;;;;;;10274625;28;20111;-63
2023/04/16 14:37:15;;;;;;;7.70;3.88;;;;;;;;;;10277153;28;20068;-64
2023/04/16 14:42:13;;;;;;;5.40;3.92;;;;;;;;;;10290861;28;20079;-64
2023/04/16 14:47:11;;;;;;;11.27;4.78;;;;;;;;;;10294640;28;20080;-64
2023/04/16 14:52:11;;;;;;;7.65;5.63;;;;;;;;;;10292764;28;20072;-64
2023/04/16 14:57:09;;;;;;;5.95;3.97;;;;;;;;;;10286250;28;20544;-64
2023/04/16 15:02:09;;;;;;;5.68;4.30;;;;;;;;;;10290988;28;20107;-65
2023/04/16 15:07:07;;;;;;;10.60;5.07;;;;;;;;;;10288051;28;20072;-65
2023/04/16 15:12:07;;;;;;;10.60;4.80;;;;;;;;;;10296282;28;20083;-65
2023/04/16 15:17:06;;;;;;;6.82;3.85;;;;;;;;;;10292040;28;20072;-66
2023/04/16 15:22:05;;;;;;;6.28;4.55;;;;;;;;;;10284089;28;20072;-64
2023/04/16 15:27:05;;;;;;;7.20;5.97;;;;;;;;;;10289823;28;20099;-65
2023/04/16 15:32:07;;;;;;;6.53;4.47;;;;;;;;;;10295301;28;20060;-65
2023/04/16 15:37:05;;;;;;;6.18;4.13;;;;;;;;;;10293849;28;20502;-65
2023/04/16 15:42:05;;;;;;;6.55;3.95;;;;;;;;;;10293293;28;20083;-65
2023/04/16 15:47:05;;;;;;;4.70;4.22;;;;;;;;;;10278855;28;20072;-64
2023/04/16 15:52:05;;;;;;;29.17;20.48;;;;;;;;;;10284245;28;20072;-64
2023/04/16 15:57:03;;;;;;;10.50;6.85;;;;;;;;;;10290951;28;20075;-64
2023/04/16 16:02:01;;;;;;;6.88;5.35;;;;;;;;;;10290752;28;20505;-65
2023/04/16 16:07:01;;;;;;;8.50;5.68;;;;;;;;;;10290973;28;20077;-64
2023/04/16 16:12:00;;;;;;;6.75;4.72;;;;;;;;;;10283539;28;20080;-65
2023/04/16 16:16:59;;;;;;;7.55;5.20;;;;;;;;;;10286769;28;20426;-65
2023/04/16 16:21:57;;;;;;;7.10;4.40;;;;;;;;;;10291886;28;20064;-64
2023/04/16 16:26:55;;;;;;;5.47;4.45;;;;;;;;;;10287915;28;20073;-63
2023/04/16 16:31:55;;;;;;;10.43;5.35;;;;;;;;;;10279191;28;20522;-63
2023/04/16 16:36:53;;;;;;;7.40;4.90;;;;;;;;;;10281103;28;20083;-65
2023/04/16 16:41:52;;;;;;;9.32;4.20;;;;;;;;;;10283982;28;20071;-64
2023/04/16 16:46:50;;;;;;;7.60;5.00;;;;;;;;;;10286430;28;20068;-64
2023/04/16 16:51:50;;;;;;;7.38;4.55;;;;;;;;;;10284696;28;20173;-63
2023/04/16 16:56:48;;;;;;;5.28;4.68;;;;;;;;;;10277553;28;20065;-63
2023/04/16 17:01:46;;;;;;;6.78;4.60;;;;;;;;;;10268636;28;20072;-63
2023/04/16 17:06:44;;;;;;;7.57;6.40;;;;;;;;;;10281054;28;20541;-63
2023/04/16 17:11:44;;;;;;;9.85;8.45;;;;;;;;;;10283498;28;20068;-63
2023/04/16 17:16:45;;;;;;;10.73;7.05;;;;;;;;;;10276448;28;20061;-63
2023/04/16 17:21:43;;;;;;;10.88;7.00;;;;;;;;;;10280915;28;20072;-62
2023/04/16 17:26:41;;;;;;;11.63;8.27;;;;;;;;;;10277569;28;20065;-62
2023/04/16 17:31:41;;;;;;;16.50;9.45;;;;;;;;;;10261570;28;20073;-63
2023/04/16 17:36:39;;;;;;;10.85;9.07;;;;;;;;;;10277571;28;20318;-63
2023/04/16 17:41:38;;;;;;;10.13;8.05;;;;;;;;;;10266010;28;20079;-63
2023/04/16 17:46:36;;;;;;;17.60;12.50;;;;;;;;;;10281390;28;20064;-64
2023/04/16 17:51:36;;;;;;;10.65;7.63;;;;;;;;;;10285782;28;20541;-63
2023/04/16 17:56:34;;;;;;;12.45;8.80;;;;;;;;;;10280112;28;20064;-63
2023/04/16 18:01:32;;;;;;;8.45;7.55;;;;;;;;;;10289690;28;20099;-63
2023/04/16 18:06:30;;;;;;;10.70;8.48;;;;;;;;;;10278217;28;20080;-63
2023/04/16 18:11:30;;;;;;;15.45;8.60;;;;;;;;;;10292940;28;20542;-64
2023/04/16 18:16:28;;;;;;;10.60;8.85;;;;;;;;;;10294307;28;20064;-63
2023/04/16 18:21:28;;;;;;;13.35;9.77;;;;;;;;;;10290086;28;20469;-64
2023/04/16 18:26:26;;;;;;;11.73;9.80;;;;;;;;;;10293651;28;20064;-65
2023/04/16 18:31:28;;;;;;;11.05;8.93;;;;;;;;;;10290658;28;20079;-63
2023/04/16 18:36:26;;;;;;;16.10;11.75;;;;;;;;;;10290049;28;20068;-64
2023/04/16 18:41:24;;;;;;;15.52;11.00;;;;;;;;;;10293182;28;20084;-63
2023/04/16 18:46:23;;;;;;;19.60;12.43;;;;;;;;;;10269787;28;20075;-64
2023/04/16 18:51:23;;;;;;;14.50;12.38;;;;;;;;;;10296441;28;20107;-64
2023/04/16 18:56:21;;;;;;;14.68;12.07;;;;;;;;;;10292283;28;20068;-64
2023/04/16 19:01:20;;;;;;;17.40;14.45;;;;;;;;;;10294181;28;20506;-64
2023/04/16 19:06:18;;;;;;;11.82;10.25;;;;;;;;;;10291587;28;20079;-64
2023/04/16 19:11:18;;;;;;;17.05;12.40;;;;;;;;;;10281918;28;20069;-64
2023/04/16 19:16:16;;;;;;;16.65;11.10;;;;;;;;;;10286308;28;20065;-64
2023/04/16 19:21:14;;;;;;;13.70;10.82;;;;;;;;;;10289883;28;20449;-64
2023/04/16 19:26:12;;;;;;;11.13;9.73;;;;;;;;;;10291937;28;20064;-65
2023/04/16 19:31:12;;;;;;;18.40;10.05;;;;;;;;;;10281313;28;20069;-64
2023/04/16 19:36:10;;;;;;;16.88;9.43;;;;;;;;;;10286482;28;20071;-64
2023/04/16 19:41:08;;;;;;;13.48;9.75;;;;;;;;;;10288465;28;20495;-64
2023/04/16 19:46:06;;;;;;;19.35;11.75;;;;;;;;;;10284611;28;20510;-64
2023/04/16 19:51:06;;;;;;;14.98;10.18;;;;;;;;;;10288092;28;20076;-64
2023/04/16 19:56:04;;;;;;;17.70;9.68;;;;;;;;;;10286704;28;20071;-64
2023/04/16 20:01:07;;;;;;;17.67;10.68;;;;;;;;;;10288325;28;20084;-64
2023/04/16 20:06:07;;;;;;;15.65;10.18;;;;;;;;;;10289190;28;20076;-64
2023/04/16 20:11:07;;;;;;;18.38;10.18;;;;;;;;;;10287053;28;20478;-64
2023/04/16 20:16:07;;;;;;;16.17;9.65;;;;;;;;;;10288277;28;20064;-64
2023/04/16 20:21:06;;;;;;;17.70;9.15;;;;;;;;;;10284309;28;20533;-64
2023/04/16 20:26:05;;;;;;;18.33;10.55;;;;;;;;;;10289476;28;20075;-64
2023/04/16 20:31:03;;;;;;;20.67;10.18;;;;;;;;;;10286579;28;20084;-64
2023/04/16 20:36:01;;;;;;;20.83;9.60;;;;;;;;;;10286183;28;20091;-64
2023/04/16 20:41:08;;;;;;;22.17;10.93;;;;;;;;;;10289350;28;20099;-64
2023/04/16 20:46:07;;;;;;;19.40;10.13;;;;;;;;;;10289588;28;20076;-64
2023/04/16 20:51:06;;;;;;;21.38;10.85;;;;;;;;;;10288561;28;20076;-64
2023/04/16 20:56:07;;;;;;;16.20;10.20;;;;;;;;;;10283817;28;20072;-64
2023/04/16 21:01:06;;;;;;;15.85;10.60;;;;;;;;;;10285546;28;20083;-64
2023/04/16 21:06:04;;;;;;;24.45;11.85;;;;;;;;;;10286831;28;20093;-64
2023/04/16 21:11:02;;;;;;;19.52;11.98;;;;;;;;;;10282667;28;20524;-64
2023/04/16 21:16:03;;;;;;;26.65;11.90;;;;;;;;;;10284524;28;20057;-63
2023/04/16 21:21:01;;;;;;;20.95;12.32;;;;;;;;;;10286994;28;20084;-63
2023/04/16 21:26:00;;;;;;;18.30;12.02;;;;;;;;;;10289498;28;20170;-64
2023/04/16 21:30:58;;;;;;;17.38;11.80;;;;;;;;;;10286894;28;20068;-64
2023/04/16 21:35:58;;;;;;;19.75;12.50;;;;;;;;;;10288992;28;20466;-64
2023/04/16 21:40:59;;;;;;;22.40;13.30;;;;;;;;;;10285199;28;20123;-64
2023/04/16 21:45:57;;;;;;;19.45;12.77;;;;;;;;;;10286260;28;20529;-64
2023/04/16 21:50:56;;;;;;;29.58;13.27;;;;;;;;;;10287520;28;20068;-64
2023/04/16 21:55:56;;;;;;;27.02;13.77;;;;;;;;;;10285964;28;20041;-64
2023/04/16 22:00:54;;;;;;;23.85;14.77;;;;;;;;;;10286398;28;20072;-64
2023/04/16 22:05:56;;;;;;;27.23;14.25;;;;;;;;;;10286941;28;20498;-64
2023/04/16 22:11:00;;;;;;;27.52;14.35;;;;;;;;;;10285935;28;20088;-65
2023/04/16 22:16:00;;;;;;;21.90;14.90;;;;;;;;;;10285595;28;20080;-64
2023/04/16 22:20:58;;;;;;;29.02;14.98;;;;;;;;;;10269797;28;20080;-64
2023/04/16 22:25:56;;;;;;;24.73;15.25;;;;;;;;;;10285097;28;20087;-64
2023/04/16 22:30:58;;;;;;;28.15;13.88;;;;;;;;;;10272798;28;20083;-64
2023/04/16 22:35:56;;;;;;;22.85;14.38;;;;;;;;;;10283392;28;20077;-64
2023/04/16 22:40:54;;;;;;;21.13;14.13;;;;;;;;;;10284065;28;20079;-64
2023/04/16 22:46:03;;;;;;;25.52;14.82;;;;;;;;;;10288747;28;20107;-64
2023/04/16 22:51:01;;;;;;;22.25;14.50;;;;;;;;;;10289620;28;20073;-64
2023/04/16 22:56:00;;;;;;;25.83;13.75;;;;;;;;;;10295004;28;20060;-64
2023/04/16 23:01:00;;;;;;;26.08;14.98;;;;;;;;;;10291522;28;20072;-64
2023/04/16 23:06:00;;;;;;;28.83;14.38;;;;;;;;;;10290651;28;20069;-64
2023/04/16 23:10:58;;;;;;;26.55;14.40;;;;;;;;;;10287670;28;20079;-64
2023/04/16 23:15:56;;;;;;;27.33;14.20;;;;;;;;;;10292943;28;20072;-64
2023/04/16 23:20:54;;;;;;;23.70;14.88;;;;;;;;;;10293444;28;20075;-64
2023/04/16 23:25:54;;;;;;;25.88;14.18;;;;;;;;;;10288171;28;20103;-65
2023/04/16 23:30:52;;;;;;;24.80;15.23;;;;;;;;;;10293071;28;20099;-64
2023/04/16 23:35:51;;;;;;;30.52;15.90;;;;;;;;;;10291724;28;20102;-64
2023/04/16 23:40:49;;;;;;;26.15;16.10;;;;;;;;;;10290558;28;20508;-64
2023/04/16 23:45:48;;;;;;;31.23;14.15;;;;;;;;;;10289335;28;20072;-64
2023/04/16 23:50:47;;;;;;;23.63;15.18;;;;;;;;;;10290000;28;20068;-64
2023/04/16 23:55:45;;;;;;;23.20;14.77;;;;;;;;;;10286973;28;20057;-64
